Time;durP1;ratioP1;P1;durP2;ratioP2;P2;SDS_P1;SDS_P2;PMS_P1;PMS_P2;Temp;Humidity;BMP_temperature;BMP_pressure;BME280_temperature;BME280_humidity;BME280_pressure;Samples;Min_cycle;Max_cycle;Signal;HPM_P1;HPM_P2
2023/06/07 00:00:34;;;;;;;7.95;2.03;;;;;;;;;;5011152;28;20030;-43
2023/06/07 00:03:01;;;;;;;13.10;1.90;;;;;;;;;;5004050;28;20035;-42
2023/06/07 00:05:31;;;;;;;17.48;2.83;;;;;;;;;;5010951;28;20034;-42
2023/06/07 00:07:58;;;;;;;11.98;2.10;;;;;;;;;;5004614;28;20038;-42
2023/06/07 00:10:25;;;;;;;13.77;2.38;;;;;;;;;;4997855;28;20088;-43
2023/06/07 00:12:52;;;;;;;12.15;2.08;;;;;;;;;;4997917;28;20520;-46
2023/06/07 00:15:19;;;;;;;12.77;2.10;;;;;;;;;;5011422;28;20096;-41
2023/06/07 00:17:46;;;;;;;14.77;2.40;;;;;;;;;;4992422;28;20477;-42
2023/06/07 00:20:14;;;;;;;9.63;1.95;;;;;;;;;;5004400;28;20076;-43
2023/06/07 00:22:42;;;;;;;13.20;2.00;;;;;;;;;;5010620;28;20048;-44
2023/06/07 00:25:09;;;;;;;12.07;2.28;;;;;;;;;;5011064;28;20030;-42
2023/06/07 00:27:36;;;;;;;11.27;2.20;;;;;;;;;;5007610;28;20037;-43
2023/06/07 00:30:03;;;;;;;9.05;2.30;;;;;;;;;;5005723;28;20045;-43
2023/06/07 00:32:31;;;;;;;8.88;2.30;;;;;;;;;;4999235;28;20051;-44
2023/06/07 00:34:58;;;;;;;15.15;2.38;;;;;;;;;;5009489;28;20150;-43
2023/06/07 00:37:25;;;;;;;12.32;2.80;;;;;;;;;;5002956;28;20053;-40
2023/06/07 00:39:52;;;;;;;17.88;3.40;;;;;;;;;;5010496;28;20551;-42
2023/06/07 00:42:20;;;;;;;15.30;2.80;;;;;;;;;;5010302;28;20103;-42
2023/06/07 00:44:47;;;;;;;16.02;2.88;;;;;;;;;;5001618;28;20084;-40
2023/06/07 00:47:14;;;;;;;13.27;2.50;;;;;;;;;;5010692;28;20061;-41
2023/06/07 00:49:41;;;;;;;8.88;2.30;;;;;;;;;;5001823;28;20045;-42
2023/06/07 00:52:08;;;;;;;13.25;2.95;;;;;;;;;;5010897;28;20030;-42
2023/06/07 00:54:35;;;;;;;9.75;2.72;;;;;;;;;;4999584;28;20058;-42
2023/06/07 00:57:03;;;;;;;9.90;3.05;;;;;;;;;;5002721;28;20041;-43
2023/06/07 00:59:30;;;;;;;13.55;3.30;;;;;;;;;;5005175;28;20129;-41
2023/06/07 01:01:57;;;;;;;12.75;3.40;;;;;;;;;;5009854;28;20023;-41
2023/06/07 01:04:25;;;;;;;10.65;3.60;;;;;;;;;;5009696;28;20029;-41
2023/06/07 01:06:52;;;;;;;12.18;3.78;;;;;;;;;;5012559;28;20488;-41
2023/06/07 01:09:19;;;;;;;15.63;4.22;;;;;;;;;;5009408;28;20049;-41
2023/06/07 01:11:49;;;;;;;13.43;4.00;;;;;;;;;;5014295;28;20476;-42
2023/06/07 01:14:17;;;;;;;15.02;4.18;;;;;;;;;;5014311;28;20033;-42
2023/06/07 01:16:44;;;;;;;11.05;4.13;;;;;;;;;;5014290;28;20109;-42
2023/06/07 01:19:27;;;;;;;16.80;4.32;;;;;;;;;;5014329;28;20022;-43
2023/06/07 01:22:20;;;;;;;15.60;4.80;;;;;;;;;;5014296;28;20026;-43
2023/06/07 01:24:48;;;;;;;17.92;6.45;;;;;;;;;;5011573;28;20404;-45
2023/06/07 01:27:16;;;;;;;29.13;7.57;;;;;;;;;;5013729;28;20036;-43
2023/06/07 01:29:44;;;;;;;25.25;8.50;;;;;;;;;;5014062;28;20046;-43
2023/06/07 01:32:12;;;;;;;30.25;8.90;;;;;;;;;;5013697;28;20061;-42
2023/06/07 01:34:39;;;;;;;33.25;10.10;;;;;;;;;;5014047;28;20033;-42
2023/06/07 01:37:06;;;;;;;35.53;10.20;;;;;;;;;;5013765;28;20025;-43
2023/06/07 01:39:34;;;;;;;36.08;10.38;;;;;;;;;;5013857;28;20075;-42
2023/06/07 01:42:01;;;;;;;37.90;10.32;;;;;;;;;;5013432;28;20034;-43
2023/06/07 01:44:29;;;;;;;46.58;11.48;;;;;;;;;;5013872;28;20485;-43
2023/06/07 01:46:56;;;;;;;31.65;10.15;;;;;;;;;;5013613;28;20025;-42
2023/06/07 01:49:23;;;;;;;30.02;10.25;;;;;;;;;;5013471;28;20577;-48
2023/06/07 01:51:50;;;;;;;29.85;9.73;;;;;;;;;;5013691;28;20061;-44
2023/06/07 01:54:18;;;;;;;35.90;11.02;;;;;;;;;;5013413;28;20141;-41
2023/06/07 01:56:54;;;;;;;37.08;10.82;;;;;;;;;;5013389;28;20031;-42
2023/06/07 01:59:21;;;;;;;34.15;10.05;;;;;;;;;;5013270;28;20022;-43
2023/06/07 02:02:11;;;;;;;36.67;9.40;;;;;;;;;;5013351;28;20477;-45
2023/06/07 02:04:40;;;;;;;36.85;10.48;;;;;;;;;;5005667;28;20038;-45
2023/06/07 02:07:12;;;;;;;31.45;9.77;;;;;;;;;;5001557;28;20030;-43
2023/06/07 02:09:40;;;;;;;37.30;9.70;;;;;;;;;;4995451;28;20544;-43
2023/06/07 02:12:11;;;;;;;32.47;9.65;;;;;;;;;;4994013;28;20042;-47
2023/06/07 02:14:38;;;;;;;29.73;9.55;;;;;;;;;;4999103;28;20076;-45
2023/06/07 02:17:09;;;;;;;29.55;10.20;;;;;;;;;;5006390;28;20084;-47
2023/06/07 02:19:36;;;;;;;34.10;9.60;;;;;;;;;;5000675;28;20088;-44
2023/06/07 02:22:03;;;;;;;35.00;9.82;;;;;;;;;;5011189;28;20391;-43
2023/06/07 02:24:30;;;;;;;23.58;9.05;;;;;;;;;;5013291;28;20026;-44
2023/06/07 02:26:57;;;;;;;28.98;9.30;;;;;;;;;;5012534;28;20037;-43
2023/06/07 02:29:24;;;;;;;24.88;8.77;;;;;;;;;;5012503;28;20025;-44
2023/06/07 02:31:54;;;;;;;30.48;9.30;;;;;;;;;;5012290;28;20025;-45
2023/06/07 02:34:21;;;;;;;31.38;8.95;;;;;;;;;;5009923;28;20127;-47
2023/06/07 02:36:48;;;;;;;26.25;8.80;;;;;;;;;;5012467;28;20017;-44
2023/06/07 02:39:15;;;;;;;29.55;9.52;;;;;;;;;;5012200;28;20026;-46
2023/06/07 02:41:42;;;;;;;30.55;8.57;;;;;;;;;;5012208;28;20040;-43
2023/06/07 02:44:10;;;;;;;29.08;9.15;;;;;;;;;;5012401;28;20050;-43
2023/06/07 02:46:37;;;;;;;24.35;8.15;;;;;;;;;;5012203;28;20041;-42
2023/06/07 02:49:04;;;;;;;25.15;8.13;;;;;;;;;;5012212;28;20034;-43
2023/06/07 02:51:31;;;;;;;26.52;8.75;;;;;;;;;;5012040;28;20539;-43
2023/06/07 02:53:59;;;;;;;24.55;8.73;;;;;;;;;;5012666;28;20052;-43
2023/06/07 02:56:29;;;;;;;25.63;8.65;;;;;;;;;;5012582;28;20033;-45
2023/06/07 02:58:56;;;;;;;26.00;8.27;;;;;;;;;;5012846;28;20361;-43
2023/06/07 03:01:27;;;;;;;26.20;8.18;;;;;;;;;;5012588;28;20396;-44
2023/06/07 03:03:55;;;;;;;22.50;7.65;;;;;;;;;;5012680;28;20468;-42
2023/06/07 03:06:22;;;;;;;19.13;6.80;;;;;;;;;;5012551;28;20112;-45
2023/06/07 03:08:49;;;;;;;22.45;7.55;;;;;;;;;;5012565;28;20037;-42
2023/06/07 03:11:16;;;;;;;22.95;7.28;;;;;;;;;;5012509;28;20026;-45
2023/06/07 03:13:43;;;;;;;20.63;7.63;;;;;;;;;;5012563;28;20026;-43
2023/06/07 03:16:10;;;;;;;19.42;6.97;;;;;;;;;;5012512;28;20026;-44
2023/06/07 03:18:37;;;;;;;19.02;7.30;;;;;;;;;;5012306;28;20042;-44
2023/06/07 03:21:04;;;;;;;17.75;6.78;;;;;;;;;;5012365;28;20075;-45
2023/06/07 03:23:31;;;;;;;20.23;6.63;;;;;;;;;;5012339;28;20026;-42
2023/06/07 03:25:58;;;;;;;22.42;6.45;;;;;;;;;;5012407;28;20484;-43
2023/06/07 03:28:26;;;;;;;19.42;6.95;;;;;;;;;;5012159;28;20071;-43
2023/06/07 03:30:53;;;;;;;20.92;7.10;;;;;;;;;;5012106;28;20593;-42
2023/06/07 03:33:20;;;;;;;17.63;7.07;;;;;;;;;;5012030;28;20131;-42
2023/06/07 03:35:47;;;;;;;16.35;6.47;;;;;;;;;;5012275;28;20026;-44
2023/06/07 03:38:14;;;;;;;16.33;6.35;;;;;;;;;;5012135;28;20034;-43
2023/06/07 03:40:41;;;;;;;17.10;6.28;;;;;;;;;;5011952;28;20105;-44
2023/06/07 03:43:08;;;;;;;18.83;6.05;;;;;;;;;;5012065;28;20156;-43
2023/06/07 03:45:35;;;;;;;16.77;6.07;;;;;;;;;;5012023;28;20053;-43
2023/06/07 03:48:02;;;;;;;15.68;5.82;;;;;;;;;;5011986;28;20037;-44
2023/06/07 03:50:29;;;;;;;18.80;6.13;;;;;;;;;;5011901;28;20034;-44
2023/06/07 03:52:56;;;;;;;13.65;6.10;;;;;;;;;;5011792;28;20136;-44
2023/06/07 03:55:23;;;;;;;15.55;6.05;;;;;;;;;;4994473;28;20030;-43
2023/06/07 03:57:51;;;;;;;17.52;5.90;;;;;;;;;;5011941;28;20026;-42
2023/06/07 04:00:18;;;;;;;15.70;5.75;;;;;;;;;;5011687;28;20045;-45
2023/06/07 04:02:45;;;;;;;14.65;5.43;;;;;;;;;;5011891;28;20024;-42
2023/06/07 04:05:12;;;;;;;15.02;6.50;;;;;;;;;;5011666;28;20029;-44
2023/06/07 04:07:40;;;;;;;15.95;5.50;;;;;;;;;;5011767;28;20032;-44
2023/06/07 04:10:07;;;;;;;14.68;5.95;;;;;;;;;;5011567;28;20411;-43
2023/06/07 04:12:35;;;;;;;13.73;5.65;;;;;;;;;;5011741;28;20018;-45
2023/06/07 04:15:02;;;;;;;14.15;5.30;;;;;;;;;;5011747;28;20468;-43
2023/06/07 04:17:28;;;;;;;14.57;5.38;;;;;;;;;;5011676;28;20030;-45
2023/06/07 04:19:56;;;;;;;15.82;5.22;;;;;;;;;;5011623;28;20442;-43
2023/06/07 04:22:24;;;;;;;11.50;4.50;;;;;;;;;;5011532;28;20117;-43
2023/06/07 04:24:51;;;;;;;13.55;5.10;;;;;;;;;;5011514;28;20523;-44
2023/06/07 04:27:18;;;;;;;12.55;5.00;;;;;;;;;;5011574;28;20057;-43
2023/06/07 04:29:53;;;;;;;12.75;4.45;;;;;;;;;;5013996;28;20029;-44
2023/06/07 04:32:20;;;;;;;12.15;4.65;;;;;;;;;;5015124;28;20054;-43
2023/06/07 04:34:48;;;;;;;12.00;4.55;;;;;;;;;;5015477;28;20026;-43
2023/06/07 04:37:16;;;;;;;11.60;4.55;;;;;;;;;;5015169;28;20026;-43
2023/06/07 04:39:48;;;;;;;11.57;4.60;;;;;;;;;;5015306;28;20034;-45
2023/06/07 04:42:17;;;;;;;14.75;4.95;;;;;;;;;;5015053;28;20092;-43
2023/06/07 04:44:45;;;;;;;8.88;3.97;;;;;;;;;;5015286;28;20483;-44
2023/06/07 04:47:12;;;;;;;12.45;4.60;;;;;;;;;;5015105;28;20021;-44
2023/06/07 04:49:40;;;;;;;10.15;4.15;;;;;;;;;;5014963;28;20042;-46
2023/06/07 04:52:08;;;;;;;11.25;4.15;;;;;;;;;;5015027;28;20030;-43
2023/06/07 04:54:36;;;;;;;11.57;4.13;;;;;;;;;;5015076;28;20037;-43
2023/06/07 04:57:03;;;;;;;11.60;4.50;;;;;;;;;;5014814;28;20092;-43
2023/06/07 04:59:34;;;;;;;7.90;3.80;;;;;;;;;;5015021;28;20053;-44
2023/06/07 05:02:02;;;;;;;8.18;3.72;;;;;;;;;;5014759;28;20396;-43
2023/06/07 05:04:30;;;;;;;7.68;3.63;;;;;;;;;;5014954;28;20022;-46
2023/06/07 05:06:58;;;;;;;10.25;3.90;;;;;;;;;;5014655;28;20030;-42
2023/06/07 05:09:28;;;;;;;9.10;3.97;;;;;;;;;;5014735;28;20037;-46
2023/06/07 05:11:55;;;;;;;10.57;4.30;;;;;;;;;;5014578;28;20030;-45
2023/06/07 05:14:22;;;;;;;9.05;3.75;;;;;;;;;;5014684;28;20419;-42
2023/06/07 05:16:49;;;;;;;10.07;4.03;;;;;;;;;;5014565;28;20022;-45
2023/06/07 05:19:16;;;;;;;10.52;4.00;;;;;;;;;;5014503;28;20030;-43
2023/06/07 05:21:43;;;;;;;7.88;3.75;;;;;;;;;;5014360;28;20026;-43
2023/06/07 05:24:10;;;;;;;8.02;3.25;;;;;;;;;;5014495;28;20055;-45
2023/06/07 05:26:37;;;;;;;8.38;3.78;;;;;;;;;;5014531;28;20052;-48
2023/06/07 05:29:04;;;;;;;9.65;3.88;;;;;;;;;;5014379;28;20026;-48
2023/06/07 05:31:32;;;;;;;10.40;3.92;;;;;;;;;;5014251;28;20053;-46
2023/06/07 05:33:59;;;;;;;7.57;3.50;;;;;;;;;;5014178;28;20381;-44
2023/06/07 05:36:27;;;;;;;6.53;3.00;;;;;;;;;;4996606;28;20373;-44
2023/06/07 05:38:54;;;;;;;6.82;3.15;;;;;;;;;;5014432;28;20041;-42
2023/06/07 05:41:21;;;;;;;9.68;3.58;;;;;;;;;;5013024;28;20072;-47
2023/06/07 05:43:48;;;;;;;5.60;3.10;;;;;;;;;;5014130;28;20488;-42
2023/06/07 05:46:15;;;;;;;7.47;3.72;;;;;;;;;;5014055;28;20389;-45
2023/06/07 05:48:42;;;;;;;9.32;3.47;;;;;;;;;;5014043;28;20137;-45
2023/06/07 05:51:10;;;;;;;7.30;3.35;;;;;;;;;;5013972;28;20026;-43
2023/06/07 05:53:37;;;;;;;8.68;3.33;;;;;;;;;;5014001;28;20435;-42
2023/06/07 05:56:04;;;;;;;8.98;3.88;;;;;;;;;;5013976;28;20022;-43
2023/06/07 05:58:31;;;;;;;6.43;3.20;;;;;;;;;;5014010;28;20033;-45
2023/06/07 06:00:59;;;;;;;6.97;3.05;;;;;;;;;;5013393;28;20030;-43
2023/06/07 06:03:26;;;;;;;5.07;2.88;;;;;;;;;;5013115;28;20037;-46
2023/06/07 06:05:53;;;;;;;6.97;3.03;;;;;;;;;;5013610;28;20391;-43
2023/06/07 06:08:20;;;;;;;8.00;3.10;;;;;;;;;;5013733;28;20037;-44
2023/06/07 06:10:47;;;;;;;8.05;3.15;;;;;;;;;;5013658;28;20034;-43
2023/06/07 06:13:14;;;;;;;7.55;3.15;;;;;;;;;;5013657;28;20089;-42
2023/06/07 06:15:41;;;;;;;6.32;2.70;;;;;;;;;;5013711;28;20022;-44
2023/06/07 06:18:08;;;;;;;7.97;2.50;;;;;;;;;;5013595;28;20038;-44
2023/06/07 06:20:36;;;;;;;4.97;2.45;;;;;;;;;;5012025;28;20384;-44
2023/06/07 06:23:04;;;;;;;7.45;2.70;;;;;;;;;;5013360;28;20026;-45
2023/06/07 06:25:31;;;;;;;5.63;2.70;;;;;;;;;;5013242;28;20028;-45
2023/06/07 06:27:58;;;;;;;6.70;2.70;;;;;;;;;;5013290;28;20029;-43
2023/06/07 06:30:27;;;;;;;4.70;2.40;;;;;;;;;;5013247;28;20105;-43
2023/06/07 06:32:54;;;;;;;5.65;2.72;;;;;;;;;;5012994;28;20050;-43
2023/06/07 06:35:21;;;;;;;4.40;2.50;;;;;;;;;;5013293;28;20022;-42
2023/06/07 06:37:48;;;;;;;6.47;2.65;;;;;;;;;;5013232;28;20025;-44
2023/06/07 06:40:16;;;;;;;5.30;2.60;;;;;;;;;;5012983;28;20022;-43
2023/06/07 06:42:43;;;;;;;7.13;2.92;;;;;;;;;;5013245;28;20547;-42
2023/06/07 06:45:10;;;;;;;5.28;2.38;;;;;;;;;;5013037;28;20392;-44
2023/06/07 06:47:41;;;;;;;4.50;2.30;;;;;;;;;;5012900;28;20026;-42
2023/06/07 06:50:09;;;;;;;5.45;2.45;;;;;;;;;;5012685;28;20457;-44
2023/06/07 06:52:36;;;;;;;3.63;2.10;;;;;;;;;;5012655;28;20025;-43
2023/06/07 06:55:03;;;;;;;5.05;2.50;;;;;;;;;;5012882;28;20079;-43
2023/06/07 06:57:30;;;;;;;4.90;2.30;;;;;;;;;;5012828;28;20022;-45
2023/06/07 06:59:59;;;;;;;4.38;2.20;;;;;;;;;;5012746;28;20026;-43
2023/06/07 07:02:26;;;;;;;4.25;2.22;;;;;;;;;;5012575;28;20044;-44
2023/06/07 07:04:53;;;;;;;5.45;2.47;;;;;;;;;;5012693;28;20053;-44
2023/06/07 07:07:20;;;;;;;4.40;2.40;;;;;;;;;;5012573;28;20018;-45
2023/06/07 07:09:49;;;;;;;4.35;2.30;;;;;;;;;;5012520;28;20156;-42
2023/06/07 07:12:16;;;;;;;6.95;2.30;;;;;;;;;;5012436;28;20369;-44
2023/06/07 07:14:43;;;;;;;6.20;2.63;;;;;;;;;;5012495;28;20030;-42
2023/06/07 07:17:10;;;;;;;6.03;2.10;;;;;;;;;;5012325;28;20149;-43
2023/06/07 07:19:37;;;;;;;4.68;2.50;;;;;;;;;;5012367;28;20103;-42
2023/06/07 07:22:04;;;;;;;4.88;2.35;;;;;;;;;;5012291;28;20639;-45
2023/06/07 07:24:31;;;;;;;4.68;2.10;;;;;;;;;;5012456;28;20491;-42
2023/06/07 07:26:58;;;;;;;4.25;2.03;;;;;;;;;;5012313;28;20030;-44
2023/06/07 07:29:25;;;;;;;4.45;2.13;;;;;;;;;;5012251;28;20025;-47
2023/06/07 07:31:53;;;;;;;3.38;2.10;;;;;;;;;;5012079;28;20107;-44
2023/06/07 07:34:20;;;;;;;3.85;1.98;;;;;;;;;;5012304;28;20030;-45
2023/06/07 07:36:47;;;;;;;3.67;1.90;;;;;;;;;;5012202;28;20105;-43
2023/06/07 07:39:16;;;;;;;3.60;2.20;;;;;;;;;;5012159;28;20476;-43
2023/06/07 07:41:44;;;;;;;5.63;2.47;;;;;;;;;;5011987;28;20025;-43
2023/06/07 07:44:10;;;;;;;3.58;2.13;;;;;;;;;;5012009;28;20025;-43
2023/06/07 07:46:37;;;;;;;3.92;1.90;;;;;;;;;;5012159;28;20013;-42
2023/06/07 07:49:04;;;;;;;5.25;1.92;;;;;;;;;;5011869;28;20026;-44
2023/06/07 07:51:32;;;;;;;4.75;2.15;;;;;;;;;;5011924;28;20022;-44
2023/06/07 07:54:00;;;;;;;4.47;2.10;;;;;;;;;;5011955;28;20473;-42
2023/06/07 07:56:27;;;;;;;3.55;1.73;;;;;;;;;;5011754;28;20400;-42
2023/06/07 07:58:54;;;;;;;3.72;2.00;;;;;;;;;;5011944;28;20030;-45
2023/06/07 08:01:22;;;;;;;3.92;2.00;;;;;;;;;;5011764;28;20387;-43
2023/06/07 08:03:49;;;;;;;3.70;2.05;;;;;;;;;;5010994;28;20030;-46
2023/06/07 08:06:16;;;;;;;2.55;1.80;;;;;;;;;;5011886;28;20543;-43
2023/06/07 08:08:43;;;;;;;4.35;2.55;;;;;;;;;;5011819;28;20080;-44
2023/06/07 08:11:10;;;;;;;3.20;2.30;;;;;;;;;;5011716;28;20395;-44
2023/06/07 08:13:37;;;;;;;4.45;2.20;;;;;;;;;;5011809;28;20105;-42
2023/06/07 08:16:04;;;;;;;2.80;1.80;;;;;;;;;;5172696;22;20499;-43
2023/06/07 08:18:31;;;;;;;3.70;1.92;;;;;;;;;;5011626;28;20076;-42
2023/06/07 08:20:58;;;;;;;3.60;1.67;;;;;;;;;;5011771;28;20046;-43
2023/06/07 08:23:25;;;;;;;3.55;2.05;;;;;;;;;;5011701;28;20483;-43
2023/06/07 08:25:53;;;;;;;3.80;1.70;;;;;;;;;;5011606;28;20544;-43
2023/06/07 08:28:20;;;;;;;3.22;1.70;;;;;;;;;;4994119;28;20059;-42
2023/06/07 08:30:47;;;;;;;3.40;2.00;;;;;;;;;;5011575;28;20038;-43
2023/06/07 08:33:14;;;;;;;2.90;1.88;;;;;;;;;;5011642;28;20033;-42
2023/06/07 08:35:41;;;;;;;4.30;2.03;;;;;;;;;;5011270;28;20796;-42
2023/06/07 08:38:08;;;;;;;2.90;1.70;;;;;;;;;;5011518;28;20088;-43
2023/06/07 08:40:36;;;;;;;3.63;1.77;;;;;;;;;;5011517;28;20030;-43
2023/06/07 08:43:03;;;;;;;3.33;1.80;;;;;;;;;;5011488;28;20052;-42
2023/06/07 08:45:30;;;;;;;3.10;1.70;;;;;;;;;;5011434;28;20021;-42
2023/06/07 08:47:58;;;;;;;3.45;1.98;;;;;;;;;;5011419;28;20018;-42
2023/06/07 08:50:26;;;;;;;3.80;1.75;;;;;;;;;;5011470;28;20527;-41
2023/06/07 08:52:55;;;;;;;3.78;1.70;;;;;;;;;;5011406;28;20024;-43
2023/06/07 08:55:24;;;;;;;4.78;2.10;;;;;;;;;;5009868;28;20201;-42
2023/06/07 08:57:52;;;;;;;3.30;1.75;;;;;;;;;;5011236;28;20037;-41
2023/06/07 09:00:23;;;;;;;3.10;1.70;;;;;;;;;;5011288;28;20107;-42
2023/06/07 09:02:53;;;;;;;3.63;1.90;;;;;;;;;;5011469;28;20026;-41
2023/06/07 09:05:21;;;;;;;4.20;1.50;;;;;;;;;;5011255;28;20475;-42
2023/06/07 09:07:49;;;;;;;2.58;1.60;;;;;;;;;;5011064;28;20037;-43
2023/06/07 09:10:19;;;;;;;4.82;1.80;;;;;;;;;;5011295;28;20052;-42
2023/06/07 09:12:46;;;;;;;3.25;1.70;;;;;;;;;;5011256;28;20184;-42
2023/06/07 09:15:20;;;;;;;3.10;1.60;;;;;;;;;;5012528;28;20491;-41
2023/06/07 09:18:02;;;;;;;2.85;1.75;;;;;;;;;;4997398;28;20025;-41
2023/06/07 09:20:31;;;;;;;2.97;1.80;;;;;;;;;;5014812;28;20034;-41
2023/06/07 09:23:01;;;;;;;3.55;1.50;;;;;;;;;;5014468;28;20484;-42
2023/06/07 09:25:28;;;;;;;3.08;1.90;;;;;;;;;;5014352;28;20038;-42
2023/06/07 09:27:56;;;;;;;3.88;1.70;;;;;;;;;;5014464;28;20018;-43
2023/06/07 09:30:23;;;;;;;2.63;1.50;;;;;;;;;;5014503;28;20026;-43
2023/06/07 09:32:50;;;;;;;2.63;1.50;;;;;;;;;;5013976;28;20486;-41
2023/06/07 09:35:21;;;;;;;4.07;1.88;;;;;;;;;;5013515;28;20463;-41
2023/06/07 09:37:54;;;;;;;5.47;1.77;;;;;;;;;;5011123;28;20501;-42
2023/06/07 09:40:23;;;;;;;5.20;1.90;;;;;;;;;;5013557;28;20037;-41
2023/06/07 09:42:57;;;;;;;4.43;1.70;;;;;;;;;;5013950;28;20113;-42
2023/06/07 09:45:25;;;;;;;3.10;1.48;;;;;;;;;;4999874;28;20096;-41
2023/06/07 09:48:02;;;;;;;13.30;2.47;;;;;;;;;;4994444;28;20038;-41
2023/06/07 09:50:31;;;;;;;6.97;1.70;;;;;;;;;;5025035;28;20518;-44
2023/06/07 09:52:59;;;;;;;7.13;1.95;;;;;;;;;;5014028;28;20149;-43
2023/06/07 09:55:30;;;;;;;3.47;1.60;;;;;;;;;;5013935;28;20026;-42
2023/06/07 09:57:57;;;;;;;2.92;1.65;;;;;;;;;;5013990;28;20022;-43
2023/06/07 10:00:25;;;;;;;4.00;1.65;;;;;;;;;;5012589;28;20724;-43
2023/06/07 10:02:52;;;;;;;5.57;1.75;;;;;;;;;;5013865;28;20030;-42
2023/06/07 10:05:21;;;;;;;5.68;1.65;;;;;;;;;;5013760;28;20360;-43
2023/06/07 10:07:50;;;;;;;3.00;1.60;;;;;;;;;;5013725;28;20040;-42
2023/06/07 10:10:21;;;;;;;4.32;1.67;;;;;;;;;;5013748;28;20113;-42
2023/06/07 10:12:50;;;;;;;3.33;1.70;;;;;;;;;;5011766;28;20397;-41
2023/06/07 10:15:25;;;;;;;6.40;1.80;;;;;;;;;;5012275;28;20072;-43
2023/06/07 10:18:10;;;;;;;3.10;1.30;;;;;;;;;;5015089;28;20022;-42
2023/06/07 10:20:43;;;;;;;5.93;1.70;;;;;;;;;;5013262;28;20033;-41
2023/06/07 10:23:16;;;;;;;4.15;1.50;;;;;;;;;;5012803;28;20541;-41
2023/06/07 10:25:47;;;;;;;9.70;2.00;;;;;;;;;;5010248;28;20034;-41
2023/06/07 10:28:28;;;;;;;4.13;1.77;;;;;;;;;;5012163;28;20048;-43
2023/06/07 10:31:04;;;;;;;6.05;1.70;;;;;;;;;;5011870;28;20022;-42
2023/06/07 10:33:31;;;;;;;3.15;1.48;;;;;;;;;;5011220;28;20471;-42
2023/06/07 10:35:58;;;;;;;6.65;1.60;;;;;;;;;;5012564;28;20022;-43
2023/06/07 10:38:25;;;;;;;4.85;1.45;;;;;;;;;;5012655;28;20021;-42
2023/06/07 10:40:55;;;;;;;8.13;2.17;;;;;;;;;;5012793;28;20058;-44
2023/06/07 10:43:25;;;;;;;7.03;1.80;;;;;;;;;;5012653;28;20036;-43
2023/06/07 10:46:11;;;;;;;6.47;1.50;;;;;;;;;;5013014;28;20018;-43
2023/06/07 10:48:40;;;;;;;4.90;1.45;;;;;;;;;;5004554;28;20389;-43
2023/06/07 10:51:07;;;;;;;2.88;1.38;;;;;;;;;;5012343;28;20471;-43
2023/06/07 10:54:06;;;;;;;5.60;1.60;;;;;;;;;;4995222;28;20044;-43
2023/06/07 10:56:34;;;;;;;6.18;1.75;;;;;;;;;;4959487;28;20091;-43
2023/06/07 10:59:16;;;;;;;4.18;1.60;;;;;;;;;;5012949;28;20030;-42
2023/06/07 11:01:48;;;;;;;2.53;1.42;;;;;;;;;;5012706;28;20029;-43
2023/06/07 11:04:39;;;;;;;6.43;1.55;;;;;;;;;;5012547;28;20048;-43
2023/06/07 11:07:41;;;;;;;3.90;1.70;;;;;;;;;;5012744;28;20063;-42
2023/06/07 11:10:08;;;;;;;4.78;1.73;;;;;;;;;;4995920;28;20124;-42
2023/06/07 11:15:37;;;;;;;5.25;2.00;;;;;;;;;;5012260;28;20084;-42
2023/06/07 11:18:08;;;;;;;4.25;1.60;;;;;;;;;;4994113;28;20041;-42
2023/06/07 11:20:38;;;;;;;3.33;1.42;;;;;;;;;;5012520;28;20026;-42
2023/06/07 11:23:24;;;;;;;5.28;1.65;;;;;;;;;;5012519;28;20494;-43
2023/06/07 11:25:59;;;;;;;5.85;1.40;;;;;;;;;;5012178;28;20065;-42
2023/06/07 11:28:27;;;;;;;3.17;1.63;;;;;;;;;;5012224;28;20125;-42
2023/06/07 11:30:55;;;;;;;3.63;1.67;;;;;;;;;;5012347;28;20058;-43
2023/06/07 11:33:22;;;;;;;2.85;1.50;;;;;;;;;;5011702;28;20026;-49
2023/06/07 11:35:53;;;;;;;8.63;1.73;;;;;;;;;;4996588;28;20566;-40
2023/06/07 11:38:20;;;;;;;6.10;2.25;;;;;;;;;;4990664;28;20025;-42
2023/06/07 11:40:48;;;;;;;6.75;2.00;;;;;;;;;;5002047;28;20030;-42
2023/06/07 11:43:15;;;;;;;4.35;1.70;;;;;;;;;;5010977;28;20376;-42
2023/06/07 11:45:43;;;;;;;8.13;1.80;;;;;;;;;;5009254;28;20044;-39
2023/06/07 11:48:10;;;;;;;9.20;1.92;;;;;;;;;;4995398;28;20034;-41
2023/06/07 11:50:38;;;;;;;4.90;2.20;;;;;;;;;;5002922;28;20041;-39
2023/06/07 11:53:08;;;;;;;5.55;2.08;;;;;;;;;;5011469;28;20030;-41
2023/06/07 11:55:36;;;;;;;6.10;1.95;;;;;;;;;;5010782;28;20038;-42
2023/06/07 11:58:03;;;;;;;5.07;1.98;;;;;;;;;;5009568;28;20753;-42
2023/06/07 12:00:32;;;;;;;6.55;2.20;;;;;;;;;;5010449;28;20038;-42
2023/06/07 12:02:59;;;;;;;4.45;2.05;;;;;;;;;;5010206;28;20038;-42
2023/06/07 12:05:30;;;;;;;6.20;2.50;;;;;;;;;;5007311;28;20034;-41
2023/06/07 12:08:04;;;;;;;4.80;2.20;;;;;;;;;;5001787;28;20029;-43
2023/06/07 12:10:38;;;;;;;6.40;2.35;;;;;;;;;;4978094;28;20423;-43
2023/06/07 12:13:13;;;;;;;5.70;2.20;;;;;;;;;;5000273;28;20049;-42
2023/06/07 12:15:56;;;;;;;10.98;2.33;;;;;;;;;;5007298;28;20554;-42
2023/06/07 12:18:27;;;;;;;7.93;2.50;;;;;;;;;;5007841;28;20034;-40
2023/06/07 12:21:07;;;;;;;10.70;2.13;;;;;;;;;;5003111;28;20048;-40
2023/06/07 12:23:38;;;;;;;6.85;2.38;;;;;;;;;;5006893;28;20026;-42
2023/06/07 12:26:15;;;;;;;6.72;2.42;;;;;;;;;;5010444;28;20029;-40
2023/06/07 12:28:43;;;;;;;6.53;2.53;;;;;;;;;;4991716;28;20558;-43
2023/06/07 12:31:22;;;;;;;7.43;2.60;;;;;;;;;;4991904;28;20038;-42
2023/06/07 12:34:02;;;;;;;6.80;2.95;;;;;;;;;;4991986;28;20039;-42
2023/06/07 12:36:39;;;;;;;8.25;2.72;;;;;;;;;;4991930;28;20073;-43
2023/06/07 12:39:10;;;;;;;7.57;3.00;;;;;;;;;;4992055;28;20104;-43
2023/06/07 12:41:37;;;;;;;5.68;2.88;;;;;;;;;;4991969;28;20026;-43
2023/06/07 12:44:06;;;;;;;5.93;3.00;;;;;;;;;;4991919;28;20054;-48
2023/06/07 12:46:39;;;;;;;6.47;2.70;;;;;;;;;;4991480;28;20069;-44
2023/06/07 12:49:08;;;;;;;7.38;2.80;;;;;;;;;;4991511;28;20081;-42
2023/06/07 12:51:36;;;;;;;5.00;2.83;;;;;;;;;;4995569;28;20050;-41
2023/06/07 12:54:03;;;;;;;6.70;3.00;;;;;;;;;;4995457;28;20101;-41
2023/06/07 12:56:30;;;;;;;7.43;3.72;;;;;;;;;;4995643;28;20032;-41
2023/06/07 12:58:57;;;;;;;9.18;4.05;;;;;;;;;;4995385;28;20034;-41
2023/06/07 13:01:25;;;;;;;15.27;3.47;;;;;;;;;;4977978;28;20035;-41
2023/06/07 13:03:52;;;;;;;8.57;3.50;;;;;;;;;;4995434;28;20527;-41
2023/06/07 13:06:20;;;;;;;8.07;3.83;;;;;;;;;;4995400;28;20034;-41
2023/06/07 13:08:48;;;;;;;7.72;3.80;;;;;;;;;;4995352;28;20476;-41
2023/06/07 13:11:15;;;;;;;9.70;3.92;;;;;;;;;;4995347;28;20088;-40
2023/06/07 13:13:42;;;;;;;11.32;4.07;;;;;;;;;;4995316;28;20046;-40
2023/06/07 13:16:09;;;;;;;8.32;3.47;;;;;;;;;;4995014;28;20508;-40
2023/06/07 13:18:38;;;;;;;10.43;4.32;;;;;;;;;;4995153;28;20542;-40
2023/06/07 13:21:05;;;;;;;8.90;4.40;;;;;;;;;;4994971;28;20037;-40
2023/06/07 13:23:33;;;;;;;9.32;4.25;;;;;;;;;;4977612;28;20093;-40
2023/06/07 13:26:01;;;;;;;11.48;4.45;;;;;;;;;;4994944;28;20109;-40
2023/06/07 13:28:28;;;;;;;9.02;4.75;;;;;;;;;;4994786;28;20038;-40
2023/06/07 13:30:55;;;;;;;7.57;4.20;;;;;;;;;;4994936;28;20041;-40
2023/06/07 13:33:22;;;;;;;8.13;4.32;;;;;;;;;;4994902;28;20030;-41
2023/06/07 13:35:50;;;;;;;9.60;4.18;;;;;;;;;;4994663;28;20410;-41
2023/06/07 13:38:17;;;;;;;7.80;4.25;;;;;;;;;;4994696;28;20054;-40
2023/06/07 13:40:44;;;;;;;7.78;4.10;;;;;;;;;;4994729;28;20058;-41
2023/06/07 13:43:11;;;;;;;7.68;4.53;;;;;;;;;;4994744;28;20023;-41
2023/06/07 13:45:40;;;;;;;7.55;4.60;;;;;;;;;;4994585;28;20026;-41
2023/06/07 13:48:08;;;;;;;8.10;4.10;;;;;;;;;;4994430;28;20117;-41
2023/06/07 13:50:35;;;;;;;7.70;4.45;;;;;;;;;;4976982;28;20492;-41
2023/06/07 13:53:03;;;;;;;8.85;4.20;;;;;;;;;;4994496;28;20030;-41
2023/06/07 13:55:30;;;;;;;9.25;4.30;;;;;;;;;;4994445;28;20034;-41
2023/06/07 13:57:57;;;;;;;7.95;4.43;;;;;;;;;;4994469;28;20084;-41
2023/06/07 14:00:25;;;;;;;7.32;4.40;;;;;;;;;;4994421;28;20033;-41
2023/06/07 14:02:52;;;;;;;11.07;4.60;;;;;;;;;;4993420;28;20030;-41
2023/06/07 14:05:19;;;;;;;9.45;4.38;;;;;;;;;;4994296;28;20369;-41
2023/06/07 14:07:46;;;;;;;7.85;4.50;;;;;;;;;;4994287;28;20026;-41
2023/06/07 14:10:15;;;;;;;9.25;4.28;;;;;;;;;;4994109;28;20088;-41
2023/06/07 14:12:42;;;;;;;11.68;4.82;;;;;;;;;;4994043;28;20480;-41
2023/06/07 14:15:09;;;;;;;8.25;4.60;;;;;;;;;;4993926;28;20046;-41
2023/06/07 14:17:37;;;;;;;8.00;4.07;;;;;;;;;;4994078;28;20026;-41
2023/06/07 14:20:05;;;;;;;11.13;4.20;;;;;;;;;;4993976;28;20034;-41
2023/06/07 14:22:32;;;;;;;8.27;4.25;;;;;;;;;;4993959;28;20030;-41
2023/06/07 14:24:59;;;;;;;10.07;4.90;;;;;;;;;;4993963;28;20041;-41
2023/06/07 14:27:26;;;;;;;7.05;4.18;;;;;;;;;;4993918;28;20866;-41
2023/06/07 14:29:53;;;;;;;7.97;4.30;;;;;;;;;;4993750;28;20046;-41
2023/06/07 14:32:20;;;;;;;9.02;4.50;;;;;;;;;;4993846;28;20031;-41
2023/06/07 14:34:47;;;;;;;7.18;4.30;;;;;;;;;;4993630;28;20033;-41
2023/06/07 14:37:14;;;;;;;9.07;4.25;;;;;;;;;;4993720;28;20033;-41
2023/06/07 14:39:41;;;;;;;6.60;4.00;;;;;;;;;;4993692;28;20117;-41
2023/06/07 14:42:08;;;;;;;7.78;4.10;;;;;;;;;;4976110;28;20030;-42
2023/06/07 14:44:35;;;;;;;5.95;3.95;;;;;;;;;;4993531;28;20069;-41
2023/06/07 14:47:02;;;;;;;19.55;4.32;;;;;;;;;;4993527;28;20480;-41
2023/06/07 14:49:29;;;;;;;6.70;4.20;;;;;;;;;;4993428;28;20022;-41